createdAt,value
2018-10-18T00:00:26.308Z,91.60
2018-10-18T00:02:54.880Z,85.00
2018-10-18T00:05:23.442Z,75.87
2018-10-18T00:07:52.056Z,80.80
2018-10-18T00:10:20.803Z,81.10
2018-10-18T00:12:49.802Z,83.40
2018-10-18T00:15:18.346Z,80.43
2018-10-18T00:17:48.158Z,82.97
2018-10-18T00:20:17.494Z,93.60
2018-10-18T00:22:46.766Z,81.70
2018-10-18T00:25:16.275Z,88.63
2018-10-18T00:27:45.090Z,84.57
2018-10-18T00:30:14.950Z,85.73
2018-10-18T00:32:44.384Z,76.53
2018-10-18T00:35:13.694Z,78.23
2018-10-18T00:37:42.251Z,75.60
2018-10-18T00:40:12.324Z,95.93
2018-10-18T00:42:41.778Z,80.00
2018-10-18T00:45:11.081Z,81.10
2018-10-18T00:47:39.673Z,74.40
2018-10-18T00:50:09.888Z,69.57
2018-10-18T00:52:38.497Z,81.27
2018-10-18T00:55:08.186Z,83.63
2018-10-18T00:57:36.764Z,72.40
2018-10-18T01:00:06.479Z,78.80
2018-10-18T01:02:35.160Z,78.03
2018-10-18T01:05:03.820Z,77.63
2018-10-18T01:07:32.438Z,76.63
2018-10-18T01:10:01.030Z,79.40
2018-10-18T01:12:29.997Z,78.70
2018-10-18T01:14:58.428Z,94.57
2018-10-18T01:17:27.020Z,80.57
2018-10-18T01:19:55.649Z,81.23
2018-10-18T01:22:24.194Z,84.03
2018-10-18T01:24:52.734Z,80.43
2018-10-18T01:27:21.305Z,87.33
2018-10-18T01:29:49.980Z,76.13
2018-10-18T01:32:21.354Z,88.43
2018-10-18T01:34:50.074Z,83.60
2018-10-18T01:37:18.686Z,71.10
2018-10-18T01:39:47.286Z,83.40
2018-10-18T01:42:15.906Z,78.30
2018-10-18T01:44:44.460Z,89.33
2018-10-18T01:47:13.032Z,78.80
2018-10-18T01:49:41.603Z,80.63
2018-10-18T01:52:10.168Z,72.77
2018-10-18T01:54:38.771Z,77.83
2018-10-18T01:57:07.325Z,83.03
2018-10-18T01:59:35.932Z,82.60
2018-10-18T02:02:04.650Z,86.10
2018-10-18T02:04:33.274Z,80.13
2018-10-18T02:07:02.072Z,83.23
2018-10-18T02:09:31.218Z,80.43
2018-10-18T02:11:59.818Z,78.50
2018-10-18T02:14:28.675Z,76.17
2018-10-18T02:16:57.332Z,78.00
2018-10-18T02:19:25.916Z,77.07
2018-10-18T02:21:54.461Z,72.03
2018-10-18T02:24:23.840Z,94.93
2018-10-18T02:26:52.390Z,86.47
2018-10-18T02:29:20.968Z,80.63
2018-10-18T02:31:49.497Z,88.53
2018-10-18T02:34:18.340Z,72.93
2018-10-18T02:36:47.189Z,79.97
2018-10-18T02:39:15.778Z,74.70
2018-10-18T02:41:44.320Z,83.27
2018-10-18T02:44:12.874Z,85.93
2018-10-18T02:46:41.414Z,82.60
2018-10-18T02:49:10.998Z,88.03
2018-10-18T02:51:39.767Z,76.80
2018-10-18T02:54:08.440Z,84.27
2018-10-18T02:56:36.982Z,78.10
2018-10-18T02:59:06.026Z,75.67
2018-10-18T03:01:34.656Z,75.80
2018-10-18T03:04:03.428Z,76.90
2018-10-18T03:06:31.970Z,75.53
2018-10-18T03:09:00.695Z,73.10
2018-10-18T03:11:29.215Z,77.23
2018-10-18T03:13:57.791Z,86.57
2018-10-18T03:16:26.338Z,80.10
2018-10-18T03:18:54.933Z,74.40
2018-10-18T03:21:23.473Z,71.30
2018-10-18T03:23:52.092Z,75.00
2018-10-18T03:26:20.672Z,83.20
2018-10-18T03:28:49.277Z,83.27
2018-10-18T03:31:17.818Z,87.27
2018-10-18T03:33:46.389Z,77.07
2018-10-18T03:36:16.270Z,85.77
2018-10-18T03:38:44.915Z,81.20
2018-10-18T03:41:13.485Z,75.97
2018-10-18T03:43:42.089Z,84.27
2018-10-18T03:46:11.381Z,87.87
2018-10-18T03:48:39.947Z,80.53
2018-10-18T03:51:08.452Z,70.13
2018-10-18T03:53:37.119Z,77.73
2018-10-18T03:56:06.745Z,81.67
2018-10-18T03:58:35.370Z,72.40
2018-10-18T04:01:03.913Z,83.53
2018-10-18T04:03:32.640Z,70.97
2018-10-18T04:06:01.327Z,74.10
2018-10-18T04:08:29.837Z,78.00
2018-10-18T04:10:58.511Z,83.10
2018-10-18T04:13:27.092Z,81.77
2018-10-18T04:15:55.616Z,79.40
2018-10-18T04:18:24.210Z,91.53
2018-10-18T04:20:52.723Z,82.10
2018-10-18T04:23:30.829Z,76.60
2018-10-18T04:25:59.668Z,79.83
2018-10-18T04:28:28.391Z,81.33
2018-10-18T04:30:57.201Z,72.80
2018-10-18T04:33:26.163Z,76.10
2018-10-18T04:35:54.774Z,77.20
2018-10-18T04:38:23.331Z,81.80
2018-10-18T04:40:51.869Z,77.77
2018-10-18T04:43:20.640Z,80.17
2018-10-18T04:45:49.209Z,85.10
2018-10-18T04:48:17.990Z,77.20
2018-10-18T04:50:47.155Z,71.63
2018-10-18T04:53:15.743Z,78.20
2018-10-18T04:55:44.261Z,73.30
2018-10-18T04:58:12.883Z,69.00
2018-10-18T05:00:41.452Z,64.67
2018-10-18T05:03:09.989Z,67.27
2018-10-18T05:05:55.048Z,72.30
2018-10-18T05:08:24.989Z,74.53
2018-10-18T05:10:53.837Z,72.97
2018-10-18T05:13:22.435Z,67.37
2018-10-18T05:15:51.204Z,84.33
2018-10-18T05:18:20.314Z,76.67
2018-10-18T05:20:48.962Z,65.83
2018-10-18T05:23:17.492Z,81.83
2018-10-18T05:25:46.860Z,79.03
2018-10-18T05:28:15.390Z,73.17
2018-10-18T05:30:43.977Z,75.00
2018-10-18T05:33:12.639Z,74.43
2018-10-18T05:35:41.282Z,73.83
2018-10-18T05:38:12.796Z,78.70
2018-10-18T05:40:41.383Z,75.50
2018-10-18T05:43:10.438Z,76.57
2018-10-18T05:45:39.027Z,76.27
2018-10-18T05:48:07.586Z,74.00
2018-10-18T05:50:36.333Z,74.97
2018-10-18T05:53:05.246Z,83.93
2018-10-18T05:55:33.838Z,76.73
2018-10-18T05:58:02.580Z,75.20
2018-10-18T06:00:31.407Z,82.43
2018-10-18T06:02:59.996Z,73.63
2018-10-18T06:05:29.516Z,75.00
2018-10-18T06:07:58.155Z,73.30
2018-10-18T06:10:37.997Z,72.93
2018-10-18T06:13:06.834Z,77.90
2018-10-18T06:15:36.363Z,77.53
2018-10-18T06:18:05.489Z,73.27
2018-10-18T06:20:34.149Z,81.50
2018-10-18T06:23:02.964Z,73.73
2018-10-18T06:25:31.657Z,75.03
2018-10-18T06:28:00.601Z,78.67
2018-10-18T06:30:30.423Z,86.80
2018-10-18T06:32:59.086Z,80.13
2018-10-18T06:35:27.784Z,87.03
2018-10-18T06:37:56.546Z,87.43
2018-10-18T06:40:25.674Z,89.03
2018-10-18T06:42:55.327Z,78.93
2018-10-18T06:45:24.484Z,78.40
2018-10-18T06:47:53.343Z,91.83
2018-10-18T06:50:22.187Z,86.60
2018-10-18T06:52:50.780Z,77.73
2018-10-18T06:55:19.514Z,97.93
2018-10-18T06:57:48.063Z,90.33
2018-10-18T07:00:23.999Z,89.80
2018-10-18T07:02:53.493Z,80.93
2018-10-18T07:05:22.751Z,78.30
2018-10-18T07:07:51.635Z,88.20
2018-10-18T07:10:20.305Z,73.57
2018-10-18T07:12:49.001Z,100.63
2018-10-18T07:15:17.650Z,87.30
2018-10-18T07:17:46.543Z,78.63
2018-10-18T07:20:16.048Z,88.20
2018-10-18T07:22:44.651Z,85.73
2018-10-18T07:25:14.717Z,89.47
2018-10-18T07:27:43.707Z,89.17
2018-10-18T07:30:14.532Z,77.27
2018-10-18T07:32:44.191Z,94.30
2018-10-18T07:35:14.231Z,87.77
2018-10-18T07:37:42.769Z,93.53
2018-10-18T07:40:14.995Z,76.97
2018-10-18T07:42:44.016Z,78.93
2018-10-18T07:45:13.695Z,83.10
2018-10-18T07:47:43.037Z,89.70
2018-10-18T07:50:12.201Z,85.77
2018-10-18T07:52:40.871Z,82.67
2018-10-18T07:55:10.576Z,77.77
2018-10-18T07:57:39.826Z,81.20
2018-10-18T08:00:11.363Z,89.30
2018-10-18T08:02:40.173Z,82.30
2018-10-18T08:05:09.469Z,117.33
2018-10-18T08:07:38.543Z,101.57
2018-10-18T08:10:15.522Z,105.67
2018-10-18T08:12:44.230Z,94.00
2018-10-18T08:15:14.442Z,98.10
2018-10-18T08:17:44.860Z,83.07
2018-10-18T08:20:14.411Z,87.60
2018-10-18T08:22:43.669Z,100.33
2018-10-18T08:25:12.799Z,105.10
2018-10-18T08:27:41.915Z,99.90
2018-10-18T08:30:12.416Z,87.50
2018-10-18T08:32:41.540Z,87.50
2018-10-18T08:35:11.636Z,105.70
2018-10-18T08:37:40.534Z,106.87
2018-10-18T08:40:09.380Z,85.23
2018-10-18T08:42:38.465Z,85.67
2018-10-18T08:45:08.411Z,79.87
2018-10-18T08:47:37.367Z,83.50
2018-10-18T08:50:08.238Z,94.97
2018-10-18T08:52:37.421Z,101.83
2018-10-18T08:55:07.822Z,90.63
2018-10-18T08:57:36.640Z,104.00
2018-10-18T09:00:05.969Z,95.13
2018-10-18T09:02:34.672Z,110.13
2018-10-18T09:05:03.548Z,105.60
2018-10-18T09:07:33.126Z,95.87
2018-10-18T09:10:02.694Z,105.83
2018-10-18T09:12:31.732Z,122.40
2018-10-18T09:15:00.847Z,112.87
2018-10-18T09:17:29.503Z,113.00
2018-10-18T09:19:58.909Z,128.57
2018-10-18T09:22:27.735Z,131.20
2018-10-18T09:24:56.915Z,134.43
2018-10-18T09:27:25.557Z,129.23
2018-10-18T09:29:54.288Z,148.20
2018-10-18T09:32:23.134Z,161.87
2018-10-18T09:34:52.689Z,143.40
2018-10-18T09:37:21.665Z,154.13
2018-10-18T09:39:51.687Z,143.13
2018-10-18T09:42:20.459Z,157.90
2018-10-18T09:44:49.173Z,145.03
2018-10-18T09:47:17.770Z,142.70
2018-10-18T09:49:46.449Z,134.87
2018-10-18T09:52:15.041Z,138.13
2018-10-18T09:54:44.346Z,138.60
2018-10-18T09:57:13.258Z,124.37
2018-10-18T09:59:42.426Z,132.97
2018-10-18T10:02:16.359Z,135.40
2018-10-18T10:04:44.990Z,135.53
2018-10-18T10:07:14.286Z,136.53
2018-10-18T10:09:42.843Z,156.40
2018-10-18T10:12:11.602Z,135.10
2018-10-18T10:14:40.430Z,135.97
2018-10-18T10:17:09.216Z,128.40
2018-10-18T10:19:38.205Z,135.63
2018-10-18T10:22:06.860Z,140.63
2018-10-18T10:24:35.595Z,129.20
2018-10-18T10:27:04.248Z,140.97
2018-10-18T10:29:33.192Z,146.30
2018-10-18T10:32:02.314Z,142.87
2018-10-18T10:34:31.091Z,142.57
2018-10-18T10:36:59.788Z,142.17
2018-10-18T10:39:28.410Z,124.83
2018-10-18T10:41:57.064Z,133.63
2018-10-18T10:44:26.279Z,131.27
2018-10-18T10:46:54.962Z,129.33
2018-10-18T10:49:23.642Z,146.23
2018-10-18T10:51:52.336Z,132.53
2018-10-18T10:54:21.562Z,146.37
2018-10-18T10:56:50.236Z,134.87
2018-10-18T10:59:20.192Z,142.93
2018-10-18T11:01:48.804Z,146.10
2018-10-18T11:04:17.434Z,142.03
2018-10-18T11:06:46.340Z,154.73
2018-10-18T11:09:15.114Z,136.57
2018-10-18T11:11:43.902Z,134.53
2018-10-18T11:14:12.594Z,139.63
2018-10-18T11:16:41.223Z,127.80
2018-10-18T11:19:10.250Z,121.60
2018-10-18T11:21:39.454Z,143.97
2018-10-18T11:24:08.356Z,136.43
2018-10-18T11:26:37.014Z,138.67
2018-10-18T11:29:06.246Z,127.10
2018-10-18T11:31:35.669Z,123.17
2018-10-18T11:34:05.214Z,127.40
2018-10-18T11:36:33.816Z,142.40
2018-10-18T11:39:02.697Z,121.07
2018-10-18T11:41:31.813Z,128.53
2018-10-18T11:44:00.606Z,136.33
2018-10-18T11:46:29.346Z,142.60
2018-10-18T11:48:57.998Z,120.43
2018-10-18T11:51:26.632Z,122.37
2018-10-18T11:53:55.322Z,123.10
2018-10-18T11:56:24.615Z,116.73
2018-10-18T11:58:53.346Z,102.57
2018-10-18T12:01:22.314Z,124.43
2018-10-18T12:03:50.958Z,123.97
2018-10-18T12:06:19.638Z,137.60
2018-10-18T12:08:48.382Z,117.80
2018-10-18T12:11:17.151Z,132.13
2018-10-18T12:13:46.198Z,129.47
2018-10-18T12:16:15.046Z,141.90
2018-10-18T12:18:44.810Z,129.27
2018-10-18T12:21:14.284Z,98.27
2018-10-18T12:23:42.948Z,117.37
2018-10-18T12:26:11.641Z,145.53
2018-10-18T12:28:40.280Z,146.00
2018-10-18T12:31:09.556Z,127.47
2018-10-18T12:33:38.366Z,118.73
2018-10-18T12:36:07.248Z,115.67
2018-10-18T12:38:36.685Z,123.33
2018-10-18T12:41:06.256Z,119.73
2018-10-18T12:43:35.040Z,126.10
2018-10-18T12:46:03.811Z,129.93
2018-10-18T12:48:32.596Z,119.60
2018-10-18T12:51:01.749Z,106.03
2018-10-18T12:53:30.378Z,118.47
2018-10-18T12:55:59.797Z,120.90
2018-10-18T12:58:28.993Z,133.57
2018-10-18T13:00:58.562Z,122.80
2018-10-18T13:03:29.220Z,122.80
2018-10-18T13:05:58.024Z,113.63
2018-10-18T13:08:27.547Z,140.03
2018-10-18T13:10:56.552Z,131.50
2018-10-18T13:13:25.214Z,127.00
2018-10-18T13:15:54.701Z,100.20
2018-10-18T13:18:23.712Z,141.77
2018-10-18T13:20:52.378Z,140.20
2018-10-18T13:23:22.838Z,129.20
2018-10-18T13:25:51.545Z,139.27
2018-10-18T13:28:20.349Z,130.70
2018-10-18T13:30:49.102Z,135.37
2018-10-18T13:33:17.917Z,143.80
2018-10-18T13:35:46.721Z,162.43
2018-10-18T13:38:16.069Z,150.00
2018-10-18T13:40:45.194Z,131.63
2018-10-18T13:43:15.446Z,132.20
2018-10-18T13:45:45.336Z,148.83
2018-10-18T13:48:14.556Z,133.60
2018-10-18T13:50:43.483Z,148.30
2018-10-18T13:53:13.024Z,122.63
2018-10-18T13:55:41.760Z,145.57
2018-10-18T13:58:11.133Z,133.77
2018-10-18T14:00:41.191Z,150.70
2018-10-18T14:03:09.945Z,134.13
2018-10-18T14:05:38.680Z,129.83
2018-10-18T14:08:07.641Z,131.93
2018-10-18T14:10:36.283Z,137.00
2018-10-18T14:13:05.337Z,111.30
2018-10-18T14:15:34.972Z,138.70
2018-10-18T14:18:03.862Z,143.70
2018-10-18T14:20:33.246Z,133.50
2018-10-18T14:23:02.313Z,137.67
2018-10-18T14:25:31.698Z,147.87
2018-10-18T14:28:01.924Z,141.43
2018-10-18T14:30:30.969Z,112.83
2018-10-18T14:32:59.609Z,156.60
2018-10-18T14:35:28.519Z,140.37
2018-10-18T14:37:58.061Z,139.13
2018-10-18T14:40:27.449Z,139.97
2018-10-18T14:42:57.389Z,128.57
2018-10-18T14:45:26.146Z,135.70
2018-10-18T14:47:54.932Z,148.47
2018-10-18T14:50:23.808Z,138.33
2018-10-18T14:52:52.950Z,129.10
2018-10-18T14:55:21.651Z,141.53
2018-10-18T14:57:50.495Z,145.97
2018-10-18T15:00:19.387Z,149.20
2018-10-18T15:02:48.127Z,155.80
2018-10-18T15:05:18.050Z,132.63
2018-10-18T15:07:46.887Z,143.10
2018-10-18T15:10:16.290Z,155.40
2018-10-18T15:12:45.314Z,167.40
2018-10-18T15:15:15.198Z,173.30
2018-10-18T15:17:44.269Z,164.27
2018-10-18T15:20:13.653Z,140.80
2018-10-18T15:22:43.089Z,162.17
2018-10-18T15:25:12.873Z,175.87
2018-10-18T15:27:42.822Z,155.60
2018-10-18T15:30:12.055Z,163.47
2018-10-18T15:32:41.067Z,147.93
2018-10-18T15:35:11.062Z,165.93
2018-10-18T15:37:40.392Z,188.57
2018-10-18T15:40:09.820Z,163.20
2018-10-18T15:42:38.726Z,170.87
2018-10-18T15:45:08.012Z,188.80
2018-10-18T15:47:36.958Z,178.57
2018-10-18T15:50:07.286Z,141.47
2018-10-18T15:52:36.183Z,116.67
2018-10-18T15:55:05.104Z,155.33
2018-10-18T15:57:34.121Z,90.47
2018-10-18T16:00:02.903Z,122.73
2018-10-18T16:02:31.866Z,159.77
2018-10-18T16:05:00.506Z,142.67
2018-10-18T16:07:29.903Z,152.70
2018-10-18T16:09:58.621Z,174.30
2018-10-18T16:12:28.169Z,163.67
2018-10-18T16:14:57.043Z,158.97
2018-10-18T16:17:25.743Z,160.73
2018-10-18T16:19:54.424Z,84.07
2018-10-18T16:22:23.317Z,158.30
2018-10-18T16:24:52.574Z,146.37
2018-10-18T16:27:22.565Z,148.13
2018-10-18T16:29:51.519Z,142.90
2018-10-18T16:32:20.276Z,147.23
2018-10-18T16:34:49.703Z,141.80
2018-10-18T16:37:18.639Z,133.43
2018-10-18T16:39:47.345Z,143.77
2018-10-18T16:42:16.386Z,146.20
2018-10-18T16:44:45.119Z,135.87
2018-10-18T16:47:13.866Z,137.00
2018-10-18T16:49:42.551Z,131.67
2018-10-18T16:52:11.447Z,126.47
2018-10-18T16:54:40.315Z,127.73
2018-10-18T16:57:09.176Z,123.40
2018-10-18T16:59:37.848Z,138.90
2018-10-18T17:02:06.765Z,136.73
2018-10-18T17:04:35.502Z,118.53
2018-10-18T17:07:04.172Z,117.80
2018-10-18T17:09:32.847Z,118.47
2018-10-18T17:12:02.457Z,138.57
2018-10-18T17:14:32.914Z,138.00
2018-10-18T17:17:02.894Z,122.80
2018-10-18T17:19:33.711Z,123.80
2018-10-18T17:22:02.681Z,135.23
2018-10-18T17:24:31.360Z,120.40
2018-10-18T17:27:00.673Z,124.50
2018-10-18T17:29:29.655Z,104.20
2018-10-18T17:31:59.027Z,135.33
2018-10-18T17:34:27.824Z,119.53
2018-10-18T17:36:59.417Z,120.00
2018-10-18T17:39:28.325Z,122.07
2018-10-18T17:41:57.641Z,124.43
2018-10-18T17:44:26.519Z,120.07
2018-10-18T17:46:56.209Z,124.50
2018-10-18T17:49:24.962Z,126.87
2018-10-18T17:51:53.768Z,113.67
2018-10-18T17:54:23.220Z,114.53
2018-10-18T17:56:51.912Z,106.23
2018-10-18T17:59:20.517Z,110.03
2018-10-18T18:01:49.181Z,118.43
2018-10-18T18:04:18.627Z,115.87
2018-10-18T18:06:47.441Z,133.63
2018-10-18T18:09:16.365Z,133.00
2018-10-18T18:11:45.974Z,107.60
2018-10-18T18:14:15.572Z,115.23
2018-10-18T18:16:44.302Z,102.87
2018-10-18T18:19:13.158Z,113.60
2018-10-18T18:21:41.888Z,113.40
2018-10-18T18:24:11.613Z,101.70
2018-10-18T18:26:45.346Z,118.67
2018-10-18T18:29:08.956Z,128.27
2018-10-18T18:31:38.410Z,125.60
2018-10-18T18:34:07.038Z,113.47
2018-10-18T18:36:35.954Z,104.27
2018-10-18T18:39:06.776Z,119.33
2018-10-18T18:41:35.426Z,109.67
2018-10-18T18:44:04.158Z,110.23
2018-10-18T18:46:33.462Z,113.27
2018-10-18T18:49:02.265Z,112.57
2018-10-18T18:51:31.336Z,112.57
2018-10-18T18:54:01.977Z,111.57
2018-10-18T18:56:30.751Z,116.93
2018-10-18T18:58:59.596Z,116.33
2018-10-18T19:01:29.284Z,116.57
2018-10-18T19:03:57.980Z,120.93
2018-10-18T19:06:26.590Z,122.83
2018-10-18T19:08:55.190Z,120.13
2018-10-18T19:11:23.827Z,110.43
2018-10-18T19:13:54.400Z,131.10
2018-10-18T19:16:23.070Z,106.33
2018-10-18T19:18:51.910Z,108.90
2018-10-18T19:21:20.548Z,108.93
2018-10-18T19:23:49.262Z,132.70
2018-10-18T19:26:17.964Z,117.30
2018-10-18T19:28:46.632Z,130.23
2018-10-18T19:31:15.301Z,108.57
2018-10-18T19:33:43.966Z,117.27
2018-10-18T19:36:12.826Z,119.97
2018-10-18T19:38:41.487Z,133.57
2018-10-18T19:41:10.169Z,122.13
2018-10-18T19:43:38.795Z,145.73
2018-10-18T19:46:07.812Z,137.33
2018-10-18T19:48:37.299Z,126.73
2018-10-18T19:51:06.417Z,124.43
2018-10-18T19:53:35.073Z,131.03
2018-10-18T19:56:03.816Z,130.90
2018-10-18T19:58:32.417Z,136.50
2018-10-18T20:01:01.856Z,150.00
2018-10-18T20:03:30.439Z,175.10
2018-10-18T20:05:59.271Z,146.57
2018-10-18T20:08:27.874Z,159.73
2018-10-18T20:10:56.576Z,152.67
2018-10-18T20:13:25.760Z,170.43
2018-10-18T20:15:54.718Z,162.37
2018-10-18T20:18:24.045Z,152.53
2018-10-18T20:20:52.683Z,140.20
2018-10-18T20:23:22.898Z,145.33
2018-10-18T20:25:51.737Z,156.13
2018-10-18T20:28:20.615Z,147.43
2018-10-18T20:30:49.282Z,163.83
2018-10-18T20:33:19.253Z,159.93
2018-10-18T20:35:48.193Z,145.60
2018-10-18T20:38:17.098Z,150.43
2018-10-18T20:40:46.315Z,140.83
2018-10-18T20:43:15.084Z,141.70
2018-10-18T20:45:44.282Z,137.83
2018-10-18T20:48:13.059Z,151.27
2018-10-18T20:50:41.747Z,125.87
2018-10-18T20:53:10.701Z,135.53
2018-10-18T20:55:39.652Z,146.87
2018-10-18T20:58:08.403Z,145.87
2018-10-18T21:00:37.135Z,133.13
2018-10-18T21:03:06.350Z,141.53
2018-10-18T21:05:34.969Z,135.57
2018-10-18T21:08:03.533Z,128.20
2018-10-18T21:10:33.643Z,132.67
2018-10-18T21:13:02.717Z,158.83
2018-10-18T21:15:31.499Z,144.87
2018-10-18T21:18:00.768Z,146.90
2018-10-18T21:20:29.418Z,140.47
2018-10-18T21:22:58.555Z,134.83
2018-10-18T21:25:27.899Z,136.77
2018-10-18T21:27:56.771Z,151.97
2018-10-18T21:30:25.370Z,145.07
2018-10-18T21:32:53.945Z,140.63
2018-10-18T21:35:24.282Z,166.73
2018-10-18T21:37:53.345Z,125.50
2018-10-18T21:40:21.946Z,141.83
2018-10-18T21:42:50.534Z,141.90
2018-10-18T21:45:19.587Z,154.00
2018-10-18T21:47:48.278Z,146.70
2018-10-18T21:50:16.965Z,124.67
2018-10-18T21:52:45.574Z,141.57
2018-10-18T21:55:16.056Z,154.70
2018-10-18T21:57:44.712Z,148.80
2018-10-18T22:00:15.690Z,151.27
2018-10-18T22:02:45.355Z,139.20
2018-10-18T22:05:15.168Z,132.50
2018-10-18T22:07:44.380Z,136.70
2018-10-18T22:10:13.716Z,138.33
2018-10-18T22:12:42.430Z,142.10
2018-10-18T22:15:11.548Z,113.63
2018-10-18T22:17:40.196Z,124.53
2018-10-18T22:20:10.281Z,133.73
2018-10-18T22:22:38.866Z,116.70
2018-10-18T22:25:08.703Z,125.60
2018-10-18T22:27:37.374Z,120.80
2018-10-18T22:30:07.283Z,115.70
2018-10-18T22:32:36.094Z,99.23
2018-10-18T22:35:05.149Z,101.20
2018-10-18T22:37:34.023Z,110.17
2018-10-18T22:40:03.003Z,106.27
2018-10-18T22:42:31.629Z,100.37
2018-10-18T22:45:00.394Z,98.23
2018-10-18T22:47:29.076Z,97.70
2018-10-18T22:49:57.684Z,97.93
2018-10-18T22:52:26.344Z,106.20
2018-10-18T22:54:55.680Z,102.47
2018-10-18T22:57:24.286Z,113.67
2018-10-18T22:59:52.942Z,97.20
2018-10-18T23:02:21.500Z,93.37
2018-10-18T23:04:50.186Z,85.00
2018-10-18T23:07:19.404Z,98.63
2018-10-18T23:09:48.014Z,72.00
2018-10-18T23:12:16.690Z,90.97
2018-10-18T23:14:45.507Z,68.60
2018-10-18T23:17:14.352Z,77.80
2018-10-18T23:19:42.982Z,85.10
2018-10-18T23:22:11.607Z,76.53
2018-10-18T23:24:40.269Z,74.97
2018-10-18T23:27:09.355Z,65.17
2018-10-18T23:29:39.244Z,58.40
2018-10-18T23:32:08.528Z,60.20
2018-10-18T23:34:37.489Z,58.27
2018-10-18T23:37:06.236Z,62.07
2018-10-18T23:39:34.924Z,55.40
2018-10-18T23:42:04.535Z,62.03
2018-10-18T23:44:33.261Z,49.57
2018-10-18T23:47:01.939Z,55.80
2018-10-18T23:49:31.003Z,45.20
2018-10-18T23:51:59.622Z,39.30
2018-10-18T23:54:28.817Z,36.53
2018-10-18T23:56:57.581Z,47.70
2018-10-18T23:59:26.901Z,37.17
